Federal Rideau — VRWG7 — position and weather

sailwx.info

Track history (hours):
 
Tides and Currents Weather Stations Pressure Air Temp Water Temp Dewpoint Dewpoint Depression Visibility Wind Speed Wind Dir Waves Ship Positions

Federal Rideau

Last reported at 2014-Sep-16 07:32 UTC. Time now 2014-Sep-16 09:30 UTC.
Position S 28°53' E 032°06'.

Length 200 m; draft 5.1 m.

Type: Cargo ship. MMSI: 477734000.

Date/timePositionNaut miles runAvg speedWind from/ knotsBaromVisibWave heightAir tempDewpointWater temp
2014-Sep-16 07:32S 28°53' E 032°06'0 0.0
2014-Sep-15 13:20S 28°53' E 032°06'0 0.0
2014-Sep-15 06:32S 28°53' E 032°06'0 0.0
2014-Sep-15 05:08S 28°53' E 032°06'0 0.0
2014-Sep-15 04:32S 28°53' E 032°06'0 0.0
2014-Sep-15 03:14S 28°53' E 032°06'0 0.0
2014-Sep-15 02:26S 28°53' E 032°06'0 0.0
2014-Sep-15 01:20S 28°53' E 032°06'0 0.1
2014-Sep-15 00:26S 28°53' E 032°06'0 0.0
2014-Sep-14 23:32S 28°53' E 032°06'0 0.0
2014-Sep-14 21:32S 28°53' E 032°06'0 0.0
2014-Sep-14 20:14S 28°53' E 032°06'1 0.0
2014-Sep-13 20:19S 28°53' E 032°07'  
2014-Sep-10 00:08S 28°47' E 032°03'0 0.0
2014-Sep-09 23:32S 28°47' E 032°03'39 4.7
2014-Sep-09 15:16S 29°25' E 031°52'710.6
2014-Sep-09 14:34S 29°30' E 031°45'1111.2
2014-Sep-09 13:33S 29°37' E 031°35'1111.2
2014-Sep-09 12:33S 29°44' E 031°25'1211.8
2014-Sep-09 11:32S 29°49' E 031°13'1010.1
2014-Sep-09 10:33S 29°52' E 031°02'1 0.5
2014-Sep-09 08:24S 29°52' E 031°01'0 0.0
2014-Sep-09 07:29S 29°52' E 031°01'0 0.0
2014-Sep-09 06:33S 29°52' E 031°01'0 0.0
2014-Sep-09 01:08S 29°52' E 031°01'0 0.0
2014-Sep-08 20:04S 29°52' E 031°01'0 0.0
2014-Sep-08 19:16S 29°52' E 031°01'0 0.0
2014-Sep-08 15:22S 29°52' E 031°01'0 0.0
2014-Sep-08 14:28S 29°52' E 031°01'0 0.0
2014-Sep-08 11:04S 29°52' E 031°01'0 0.0
2014-Sep-08 08:04S 29°52' E 031°01'0 0.0
2014-Sep-08 06:08S 29°52' E 031°01'0 0.0
2014-Sep-08 05:33S 29°52' E 031°01'0 0.0
2014-Sep-08 04:32S 29°52' E 031°01'0 0.0
2014-Sep-08 03:34S 29°52' E 031°01'0 0.0
2014-Sep-08 02:32S 29°52' E 031°01'0 0.0
2014-Sep-08 01:32S 29°52' E 031°01'0 0.0
2014-Sep-08 00:32S 29°52' E 031°01'0 0.0
2014-Sep-07 23:33S 29°52' E 031°01'0 0.0
2014-Sep-07 22:17S 29°52' E 031°01'0 0.0
2014-Sep-07 21:33S 29°52' E 031°01'0 0.0
2014-Sep-07 20:32S 29°52' E 031°01'0 0.0
2014-Sep-07 19:32S 29°52' E 031°01'2 2.4
2014-Sep-07 18:33S 29°52' E 031°03'6 5.8
2014-Sep-07 17:32S 29°47' E 031°06'1 1.1
2014-Sep-07 16:33S 29°48' E 031°07'3 3.0
2014-Sep-07 15:33S 29°45' E 031°08'0 0.1
2014-Sep-07 14:08S 29°45' E 031°08'0 0.0
2014-Sep-07 13:33S 29°45' E 031°08'0 0.0
2014-Sep-07 12:33S 29°45' E 031°08'0 0.0
2014-Sep-07 11:33S 29°45' E 031°08'0 0.0
2014-Sep-07 10:33S 29°45' E 031°08'0 0.0
2014-Sep-07 09:33S 29°45' E 031°08'0 0.0
2014-Sep-07 08:33S 29°45' E 031°08'0 0.0
2014-Sep-07 07:33S 29°45' E 031°08'0 0.0
2014-Sep-07 06:33S 29°45' E 031°08'0 0.0
2014-Sep-07 05:33S 29°45' E 031°08'0 0.0
2014-Sep-07 04:33S 29°45' E 031°08'0 0.0
2014-Sep-07 03:33S 29°45' E 031°08'0 0.0
2014-Sep-07 02:33S 29°45' E 031°08'0 0.0
2014-Sep-07 01:33S 29°45' E 031°08'0 0.0
2014-Sep-07 00:31S 29°45' E 031°08'0 0.0
2014-Sep-06 23:33S 29°45' E 031°08'0 0.0
2014-Sep-06 22:33S 29°45' E 031°08'0 0.0
2014-Sep-06 21:33S 29°45' E 031°08'0 0.1
2014-Sep-06 20:33S 29°45' E 031°08'1 1.1
2014-Sep-06 19:34S 29°46' E 031°07'9 9.3
2014-Sep-06 18:34S 29°55' E 031°10'1212.0
2014-Sep-06 17:33S 30°06' E 031°05'1010.3
2014-Sep-06 16:33S 30°15' E 030°60'1111.1
2014-Sep-06 15:34S 30°25' E 030°54'1110.5
2014-Sep-06 14:33S 30°35' E 030°50'9 9.3
2014-Sep-06 13:33S 30°44' E 030°45'10 9.5
2014-Sep-06 12:33S 30°52' E 030°40'  
Track history (hours):
 
Tides and Currents Weather Stations Pressure Air Temp Water Temp Dewpoint Dewpoint Depression Visibility Wind Speed Wind Dir Waves Ship Positions

Federal Rideau

Last reported at 2014-Sep-16 07:32 UTC. Time now 2014-Sep-16 09:30 UTC.
Position S 28°53' E 032°06'.

Length 200 m; draft 5.1 m.

Type: Cargo ship. MMSI: 477734000.

Date/timePositionNaut miles runAvg speedWind from/ knotsBaromVisibWave heightAir tempDewpointWater temp
2014-Sep-16 07:32S 28°53' E 032°06'0 0.0
2014-Sep-15 13:20S 28°53' E 032°06'0 0.0
2014-Sep-15 06:32S 28°53' E 032°06'0 0.0
2014-Sep-15 05:08S 28°53' E 032°06'0 0.0
2014-Sep-15 04:32S 28°53' E 032°06'0 0.0
2014-Sep-15 03:14S 28°53' E 032°06'0 0.0
2014-Sep-15 02:26S 28°53' E 032°06'0 0.0
2014-Sep-15 01:20S 28°53' E 032°06'0 0.1
2014-Sep-15 00:26S 28°53' E 032°06'0 0.0
2014-Sep-14 23:32S 28°53' E 032°06'0 0.0
2014-Sep-14 21:32S 28°53' E 032°06'0 0.0
2014-Sep-14 20:14S 28°53' E 032°06'1 0.0
2014-Sep-13 20:19S 28°53' E 032°07'  
2014-Sep-10 00:08S 28°47' E 032°03'0 0.0
2014-Sep-09 23:32S 28°47' E 032°03'39 4.7
2014-Sep-09 15:16S 29°25' E 031°52'710.6
2014-Sep-09 14:34S 29°30' E 031°45'1111.2
2014-Sep-09 13:33S 29°37' E 031°35'1111.2
2014-Sep-09 12:33S 29°44' E 031°25'1211.8
2014-Sep-09 11:32S 29°49' E 031°13'1010.1
2014-Sep-09 10:33S 29°52' E 031°02'1 0.5
2014-Sep-09 08:24S 29°52' E 031°01'0 0.0
2014-Sep-09 07:29S 29°52' E 031°01'0 0.0
2014-Sep-09 06:33S 29°52' E 031°01'0 0.0
2014-Sep-09 01:08S 29°52' E 031°01'0 0.0
2014-Sep-08 20:04S 29°52' E 031°01'0 0.0
2014-Sep-08 19:16S 29°52' E 031°01'0 0.0
2014-Sep-08 15:22S 29°52' E 031°01'0 0.0
2014-Sep-08 14:28S 29°52' E 031°01'0 0.0
2014-Sep-08 11:04S 29°52' E 031°01'0 0.0
2014-Sep-08 08:04S 29°52' E 031°01'0 0.0
2014-Sep-08 06:08S 29°52' E 031°01'0 0.0
2014-Sep-08 05:33S 29°52' E 031°01'0 0.0
2014-Sep-08 04:32S 29°52' E 031°01'0 0.0
2014-Sep-08 03:34S 29°52' E 031°01'0 0.0
2014-Sep-08 02:32S 29°52' E 031°01'0 0.0
2014-Sep-08 01:32S 29°52' E 031°01'0 0.0
2014-Sep-08 00:32S 29°52' E 031°01'0 0.0
2014-Sep-07 23:33S 29°52' E 031°01'0 0.0
2014-Sep-07 22:17S 29°52' E 031°01'0 0.0
2014-Sep-07 21:33S 29°52' E 031°01'0 0.0
2014-Sep-07 20:32S 29°52' E 031°01'0 0.0
2014-Sep-07 19:32S 29°52' E 031°01'2 2.4
2014-Sep-07 18:33S 29°52' E 031°03'6 5.8
2014-Sep-07 17:32S 29°47' E 031°06'1 1.1
2014-Sep-07 16:33S 29°48' E 031°07'3 3.0
2014-Sep-07 15:33S 29°45' E 031°08'0 0.1
2014-Sep-07 14:08S 29°45' E 031°08'0 0.0
2014-Sep-07 13:33S 29°45' E 031°08'0 0.0
2014-Sep-07 12:33S 29°45' E 031°08'0 0.0
2014-Sep-07 11:33S 29°45' E 031°08'0 0.0
2014-Sep-07 10:33S 29°45' E 031°08'0 0.0
2014-Sep-07 09:33S 29°45' E 031°08'0 0.0
2014-Sep-07 08:33S 29°45' E 031°08'0 0.0
2014-Sep-07 07:33S 29°45' E 031°08'0 0.0
2014-Sep-07 06:33S 29°45' E 031°08'0 0.0
2014-Sep-07 05:33S 29°45' E 031°08'0 0.0
2014-Sep-07 04:33S 29°45' E 031°08'0 0.0
2014-Sep-07 03:33S 29°45' E 031°08'0 0.0
2014-Sep-07 02:33S 29°45' E 031°08'0 0.0
2014-Sep-07 01:33S 29°45' E 031°08'0 0.0
2014-Sep-07 00:31S 29°45' E 031°08'0 0.0
2014-Sep-06 23:33S 29°45' E 031°08'0 0.0
2014-Sep-06 22:33S 29°45' E 031°08'0 0.0
2014-Sep-06 21:33S 29°45' E 031°08'0 0.1
2014-Sep-06 20:33S 29°45' E 031°08'1 1.1
2014-Sep-06 19:34S 29°46' E 031°07'9 9.3
2014-Sep-06 18:34S 29°55' E 031°10'1212.0
2014-Sep-06 17:33S 30°06' E 031°05'1010.3
2014-Sep-06 16:33S 30°15' E 030°60'1111.1
2014-Sep-06 15:34S 30°25' E 030°54'1110.5
2014-Sep-06 14:33S 30°35' E 030°50'9 9.3
2014-Sep-06 13:33S 30°44' E 030°45'10 9.5
2014-Sep-06 12:33S 30°52' E 030°40'  

Dump ship's entire track history